Time;durP1;ratioP1;P1;durP2;ratioP2;P2;SDS_P1;SDS_P2;PMS_P1;PMS_P2;Temp;Humidity;BMP_temperature;BMP_pressure;BME280_temperature;BME280_humidity;BME280_pressure;Samples;Min_cycle;Max_cycle;Signal;HPM_P1;HPM_P2
2023/04/16 00:01:42;;;;;;;2.70;0.70;;;;;;;18.14;42.31;101803.19;5091153;28;20099;-55
2023/04/16 00:04:08;;;;;;;4.53;0.90;;;;;;;17.83;43.71;101807.00;5091451;28;20024;-55
2023/04/16 00:06:34;;;;;;;3.90;1.55;;;;;;;18.07;42.27;101807.06;5091026;28;20366;-54
2023/04/16 00:09:00;;;;;;;2.83;1.00;;;;;;;18.34;43.23;101802.03;5091921;28;20043;-55
2023/04/16 00:11:27;;;;;;;2.78;1.05;;;;;;;18.46;42.21;101797.44;5091367;28;20385;-56
2023/04/16 00:13:53;;;;;;;3.67;1.13;;;;;;;18.16;41.00;101798.38;5091099;28;20032;-55
2023/04/16 00:16:20;;;;;;;2.38;0.80;;;;;;;18.18;42.44;101798.94;5089423;28;20040;-55
2023/04/16 00:18:46;;;;;;;1.75;0.70;;;;;;;18.40;42.42;101795.69;5094496;28;20036;-56
2023/04/16 00:21:12;;;;;;;3.42;1.00;;;;;;;18.06;43.51;101794.59;5076336;28;20032;-55
2023/04/16 00:23:38;;;;;;;2.13;0.63;;;;;;;18.28;42.13;101792.97;5088039;28;20107;-54
2023/04/16 00:26:04;;;;;;;3.00;0.50;;;;;;;18.20;42.02;101791.41;5090850;28;20065;-50
2023/04/16 00:28:32;;;;;;;1.27;0.50;;;;;;;18.00;44.67;101790.09;5091778;28;20484;-49
2023/04/16 00:31:00;;;;;;;3.38;0.70;;;;;;;18.10;46.10;101791.19;5092802;28;20024;-49
2023/04/16 00:33:28;;;;;;;2.55;0.73;;;;;;;18.08;46.53;101795.16;5093524;28;20040;-50
2023/04/16 00:35:55;;;;;;;1.88;0.85;;;;;;;17.80;47.57;101790.38;5093075;28;20022;-48
2023/04/16 00:38:21;;;;;;;4.68;0.93;;;;;;;17.98;47.17;101786.78;5086844;28;20026;-48
2023/04/16 00:40:47;;;;;;;2.33;0.90;;;;;;;17.93;47.39;101787.47;5074694;28;20032;-51
2023/04/16 00:43:24;;;;;;;4.00;1.00;;;;;;;17.90;48.04;101787.94;5083843;28;20032;-50
2023/04/16 00:45:52;;;;;;;3.63;1.40;;;;;;;17.91;48.57;101793.13;5088715;28;20480;-49
2023/04/16 00:48:19;;;;;;;2.65;1.00;;;;;;;17.27;48.88;101791.91;5094849;28;20089;-50
2023/04/16 00:50:46;;;;;;;2.22;0.80;;;;;;;17.08;49.59;101791.06;5075262;28;20032;-49
2023/04/16 00:53:13;;;;;;;5.15;1.30;;;;;;;17.23;49.84;101790.69;5092874;28;20027;-50
2023/04/16 00:55:40;;;;;;;4.30;0.90;;;;;;;17.06;49.76;101789.66;5093898;28;20151;-53
2023/04/16 00:58:06;;;;;;;2.17;1.00;;;;;;;17.11;50.08;101789.81;5082536;28;20021;-53
2023/04/16 01:00:32;;;;;;;4.18;1.10;;;;;;;17.24;50.32;101803.16;5093750;28;20047;-50
2023/04/16 01:02:59;;;;;;;2.55;0.85;;;;;;;16.95;51.27;101791.25;5093004;28;20020;-52
2023/04/16 01:05:25;;;;;;;1.70;0.98;;;;;;;17.07;50.83;101792.13;5094147;28;20029;-53
2023/04/16 01:07:52;;;;;;;2.67;1.02;;;;;;;16.99;51.45;101783.47;5093982;28;20476;-54
2023/04/16 01:10:18;;;;;;;4.55;1.15;;;;;;;16.60;51.97;101788.22;5094577;28;20391;-53
2023/04/16 01:12:44;;;;;;;4.30;1.13;;;;;;;16.54;52.26;101792.66;5094293;28;20452;-52
2023/04/16 01:15:11;;;;;;;2.22;0.80;;;;;;;16.57;52.33;101786.81;5088128;28;20032;-53
2023/04/16 01:17:37;;;;;;;4.35;1.30;;;;;;;16.27;53.29;101791.25;5074197;28;20103;-51
2023/04/16 01:20:04;;;;;;;1.98;0.88;;;;;;;16.04;54.21;101795.34;5074233;28;20020;-51
2023/04/16 01:22:30;;;;;;;3.15;1.00;;;;;;;15.84;54.68;101789.28;5073850;28;20033;-49
2023/04/16 01:24:56;;;;;;;10.25;2.70;;;;;;;15.82;55.65;101791.34;5075273;28;20052;-50
2023/04/16 01:27:22;;;;;;;5.20;2.00;;;;;;;15.94;55.65;101795.03;5094382;28;20372;-50
2023/04/16 01:29:49;;;;;;;4.68;1.40;;;;;;;15.52;56.36;101786.50;5094386;28;20030;-48
2023/04/16 01:32:15;;;;;;;7.38;2.10;;;;;;;15.33;56.57;101790.16;5094304;28;20418;-50
2023/04/16 01:34:41;;;;;;;5.88;1.25;;;;;;;15.09;57.45;101788.16;5093864;28;20086;-51
2023/04/16 01:37:07;;;;;;;4.57;1.40;;;;;;;15.04;57.41;101784.22;5094430;28;20024;-50
2023/04/16 01:39:34;;;;;;;4.55;1.30;;;;;;;14.73;58.51;101784.13;5093480;28;20012;-50
2023/04/16 01:42:01;;;;;;;5.55;1.25;;;;;;;14.98;58.24;101786.94;5094457;28;20029;-50
2023/04/16 01:44:27;;;;;;;3.70;1.73;;;;;;;14.68;58.76;101778.53;5093988;28;20073;-51
2023/04/16 01:46:53;;;;;;;3.35;1.23;;;;;;;14.60;59.51;101784.94;5093938;28;20078;-50
2023/04/16 01:49:19;;;;;;;4.30;1.50;;;;;;;14.50;59.04;101780.00;5085552;28;20066;-48
2023/04/16 01:51:46;;;;;;;4.80;1.40;;;;;;;14.43;59.31;101784.53;5080819;28;20025;-48
2023/04/16 01:54:12;;;;;;;2.92;1.65;;;;;;;14.49;59.40;101790.97;5092452;28;20035;-49
2023/04/16 01:56:38;;;;;;;6.20;1.42;;;;;;;14.43;59.26;101789.09;5093138;28;20032;-48
2023/04/16 01:59:05;;;;;;;3.50;1.50;;;;;;;14.05;59.89;101789.72;5106609;28;20106;-47
2023/04/16 02:01:31;;;;;;;4.20;1.30;;;;;;;13.85;60.49;101795.06;5100601;28;20106;-51
2023/04/16 02:03:57;;;;;;;5.75;1.40;;;;;;;14.07;60.05;101795.72;5092637;28;20020;-52
2023/04/16 02:06:24;;;;;;;5.78;1.40;;;;;;;14.24;59.53;101788.88;5090670;28;20032;-51
2023/04/16 02:08:50;;;;;;;8.15;1.63;;;;;;;14.36;58.84;101786.41;5095044;28;20032;-51
2023/04/16 02:11:17;;;;;;;5.50;2.10;;;;;;;13.85;59.92;101796.94;5085879;28;20028;-50
2023/04/16 02:13:43;;;;;;;4.65;1.30;;;;;;;13.64;61.24;101789.84;5082909;28;20444;-52
2023/04/16 02:16:09;;;;;;;5.15;1.83;;;;;;;13.55;62.05;101793.72;5093180;28;20031;-51
2023/04/16 02:18:35;;;;;;;5.35;1.70;;;;;;;13.62;61.96;101781.16;5080885;28;20028;-50
2023/04/16 02:21:02;;;;;;;11.52;2.20;;;;;;;13.35;62.69;101786.44;5073317;28;20020;-52
2023/04/16 02:23:28;;;;;;;4.32;1.80;;;;;;;13.84;61.33;101790.72;5071787;28;20463;-51
2023/04/16 02:25:54;;;;;;;7.32;1.67;;;;;;;13.77;61.25;101792.59;5072131;28;20081;-51
2023/04/16 02:28:21;;;;;;;6.10;1.65;;;;;;;13.62;61.57;101784.66;5083220;28;20028;-51
2023/04/16 02:30:47;;;;;;;5.60;1.80;;;;;;;13.62;61.89;101794.59;5088219;28;20020;-51
2023/04/16 02:33:13;;;;;;;4.35;1.55;;;;;;;13.17;63.94;101784.28;5087957;28;20030;-51
2023/04/16 02:35:40;;;;;;;5.13;1.88;;;;;;;13.19;63.72;101787.59;5091968;28;20499;-53
2023/04/16 02:38:07;;;;;;;5.20;1.73;;;;;;;13.07;64.08;101788.34;5082167;28;20035;-51
2023/04/16 02:40:33;;;;;;;7.10;1.55;;;;;;;12.98;64.26;101786.84;5072803;28;20024;-50
2023/04/16 02:42:59;;;;;;;6.65;2.28;;;;;;;12.95;64.21;101791.59;5082869;28;20056;-51
2023/04/16 02:45:25;;;;;;;7.30;2.05;;;;;;;12.58;65.40;101792.81;5072216;28;20029;-50
2023/04/16 02:47:52;;;;;;;4.78;1.67;;;;;;;12.65;65.01;101798.22;5088252;28;20032;-51
2023/04/16 02:50:18;;;;;;;4.82;1.70;;;;;;;12.33;66.31;101805.84;5096108;28;20073;-50
2023/04/16 02:52:44;;;;;;;8.07;2.08;;;;;;;12.04;67.31;101814.03;5110325;28;20024;-51
2023/04/16 02:55:11;;;;;;;7.05;2.17;;;;;;;11.85;68.28;101815.50;5092439;28;20024;-51
2023/04/16 02:57:37;;;;;;;8.70;2.15;;;;;;;12.10;67.21;101808.75;5092718;28;20432;-50
2023/04/16 03:00:04;;;;;;;6.45;1.80;;;;;;;11.64;68.78;101809.06;5092669;28;20175;-50
2023/04/16 03:02:30;;;;;;;7.32;2.25;;;;;;;11.53;69.31;101812.22;5091282;28;20028;-48
2023/04/16 03:04:56;;;;;;;5.03;1.67;;;;;;;11.53;69.33;101798.81;5091906;28;20032;-50
2023/04/16 03:07:23;;;;;;;7.32;2.50;;;;;;;11.80;68.37;101805.31;5092917;28;20071;-48
2023/04/16 03:09:49;;;;;;;9.18;2.20;;;;;;;11.87;67.36;101803.56;5092374;28;20016;-49
2023/04/16 03:12:15;;;;;;;5.88;2.38;;;;;;;11.95;67.36;101801.78;5075631;28;20035;-51
2023/04/16 03:14:41;;;;;;;9.50;3.08;;;;;;;11.29;69.37;101799.16;5092183;28;20044;-50
2023/04/16 03:17:08;;;;;;;5.88;2.03;;;;;;;11.46;69.31;101802.47;5092291;28;20055;-50
2023/04/16 03:19:34;;;;;;;5.75;1.95;;;;;;;11.31;69.87;101805.16;5092419;28;20032;-50
2023/04/16 03:22:00;;;;;;;6.63;1.80;;;;;;;11.23;69.05;101811.47;5092590;28;20112;-49
2023/04/16 03:24:27;;;;;;;3.58;1.75;;;;;;;11.18;68.50;101808.50;5092687;28;20719;-51
2023/04/16 03:26:53;;;;;;;4.88;1.98;;;;;;;11.20;68.38;101811.81;5092003;28;20080;-50
2023/04/16 03:29:19;;;;;;;4.63;2.10;;;;;;;11.12;68.80;101809.25;5092109;28;20468;-48
2023/04/16 03:31:45;;;;;;;4.25;1.35;;;;;;;11.33;68.08;101817.38;5092062;28;20024;-50
2023/04/16 03:34:11;;;;;;;5.13;1.90;;;;;;;11.64;66.99;101825.16;5091931;28;20528;-51
2023/04/16 03:36:38;;;;;;;4.38;1.83;;;;;;;11.67;66.61;101818.59;5092003;28;20028;-49
2023/04/16 03:39:04;;;;;;;5.20;1.83;;;;;;;11.70;66.57;101825.41;5092108;28;20020;-50
2023/04/16 03:41:30;;;;;;;8.93;2.65;;;;;;;11.69;66.20;101826.44;5091874;28;20016;-50
2023/04/16 03:43:56;;;;;;;4.97;2.30;;;;;;;11.43;67.34;101835.81;5107957;28;20035;-51
2023/04/16 03:46:23;;;;;;;8.75;2.53;;;;;;;11.60;67.23;101842.66;5106014;28;20028;-50
2023/04/16 03:48:49;;;;;;;7.57;2.40;;;;;;;11.59;67.26;101824.06;5091069;28;20102;-50
2023/04/16 03:51:15;;;;;;;6.72;2.13;;;;;;;11.16;68.82;101832.00;5090225;28;20020;-51
2023/04/16 03:53:41;;;;;;;9.10;2.13;;;;;;;11.36;68.83;101835.75;5091548;28;20020;-51
2023/04/16 03:56:08;;;;;;;4.00;1.60;;;;;;;11.36;68.52;101840.28;5091646;28;20277;-50
2023/04/16 03:58:34;;;;;;;7.88;1.92;;;;;;;11.35;68.83;101835.94;5097626;28;20051;-50
2023/04/16 04:01:00;;;;;;;8.82;2.38;;;;;;;11.52;68.87;101844.59;5112299;28;20547;-50
2023/04/16 04:03:26;;;;;;;6.13;1.88;;;;;;;11.40;68.92;101844.25;5113126;28;20080;-50
2023/04/16 04:05:53;;;;;;;6.72;2.20;;;;;;;10.95;70.65;101842.59;5116503;28;20020;-50
2023/04/16 04:08:19;;;;;;;10.75;2.90;;;;;;;11.10;70.83;101836.25;5109271;28;20180;-51
2023/04/16 04:10:45;;;;;;;8.57;2.20;;;;;;;10.92;71.37;101840.28;5095823;28;20024;-50
2023/04/16 04:13:12;;;;;;;6.32;2.83;;;;;;;11.11;70.87;101845.09;5102369;28;20617;-50
2023/04/16 04:15:38;;;;;;;4.55;2.28;;;;;;;11.09;70.96;101847.13;5115927;28;20407;-47
2023/04/16 04:18:04;;;;;;;4.55;1.98;;;;;;;11.55;69.57;101853.13;5109067;28;20548;-50
2023/04/16 04:20:30;;;;;;;8.40;2.50;;;;;;;11.44;69.61;101853.59;5116255;27;20052;-50
2023/04/16 04:22:57;;;;;;;6.38;2.17;;;;;;;11.35;70.13;101854.69;5097314;28;20494;-51
2023/04/16 04:25:23;;;;;;;5.28;2.03;;;;;;;11.48;69.41;101856.72;5095612;28;20036;-48
2023/04/16 04:27:50;;;;;;;7.15;2.40;;;;;;;11.39;69.91;101852.50;5109060;28;20032;-51
2023/04/16 04:30:16;;;;;;;4.25;2.35;;;;;;;11.67;68.90;101858.81;5116142;28;20020;-51
2023/04/16 04:32:42;;;;;;;9.52;3.28;;;;;;;11.60;69.14;101857.88;5113736;28;20032;-50
2023/04/16 04:35:09;;;;;;;6.07;2.92;;;;;;;11.10;70.90;101860.34;5108912;27;20447;-51
2023/04/16 04:37:35;;;;;;;5.93;2.78;;;;;;;11.47;69.74;101868.47;5115768;28;20035;-49
2023/04/16 04:40:01;;;;;;;7.07;2.80;;;;;;;11.57;69.09;101874.38;5113587;28;20030;-51
2023/04/16 04:42:27;;;;;;;5.53;2.75;;;;;;;11.67;68.34;101874.91;5115714;27;20460;-48
2023/04/16 04:44:54;;;;;;;5.88;2.17;;;;;;;11.83;67.58;101865.84;5113499;28;20447;-47
2023/04/16 04:47:20;;;;;;;5.10;2.15;;;;;;;11.91;67.23;101883.66;5115513;28;20540;-50
2023/04/16 04:49:46;;;;;;;6.47;2.38;;;;;;;11.90;66.98;101882.84;5105134;27;20532;-51
2023/04/16 04:52:13;;;;;;;8.00;3.08;;;;;;;11.91;65.55;101886.34;5094880;28;20066;-50
2023/04/16 04:54:40;;;;;;;6.45;3.25;;;;;;;11.86;64.53;101892.28;5107308;28;20467;-49
2023/04/16 04:57:07;;;;;;;9.93;3.70;;;;;;;11.78;63.08;101890.53;5115363;28;20031;-50
2023/04/16 04:59:33;;;;;;;8.18;2.97;;;;;;;11.67;62.90;101892.84;5108211;28;20027;-50
2023/04/16 05:02:02;;;;;;;6.00;2.45;;;;;;;11.62;62.73;101896.91;5109723;28;20111;-48
2023/04/16 05:04:29;;;;;;;6.00;2.30;;;;;;;11.60;62.76;101900.78;5094300;28;20063;-47
2023/04/16 05:06:55;;;;;;;5.13;2.08;;;;;;;11.54;62.78;101904.22;5095207;28;20214;-50
2023/04/16 05:09:22;;;;;;;4.85;2.00;;;;;;;11.46;62.87;101907.00;5094688;28;20030;-49
2023/04/16 05:11:48;;;;;;;5.28;2.58;;;;;;;11.40;63.11;101905.06;5094589;28;20456;-48
2023/04/16 05:14:14;;;;;;;3.80;1.75;;;;;;;11.41;63.29;101912.09;5093830;28;20117;-50
2023/04/16 05:16:40;;;;;;;6.25;2.00;;;;;;;11.26;63.91;101907.56;5093779;28;20044;-48
2023/04/16 05:19:07;;;;;;;3.50;1.50;;;;;;;11.31;63.37;101902.47;5111694;28;20035;-48
2023/04/16 05:21:33;;;;;;;5.20;1.90;;;;;;;11.54;62.30;101905.06;5109137;28;20038;-47
2023/04/16 05:23:59;;;;;;;9.13;2.08;;;;;;;11.34;62.88;101904.81;5094542;28;20024;-47
2023/04/16 05:26:26;;;;;;;3.83;1.60;;;;;;;11.22;62.97;101906.28;5095003;28;20036;-51
2023/04/16 05:28:52;;;;;;;4.18;1.85;;;;;;;11.25;63.08;101908.56;5113433;28;20388;-48
2023/04/16 05:31:18;;;;;;;3.88;1.73;;;;;;;11.30;63.06;101905.34;5112444;28;20394;-47
2023/04/16 05:33:44;;;;;;;6.25;2.17;;;;;;;11.28;63.15;101905.53;5092612;28;20041;-50
2023/04/16 05:36:10;;;;;;;6.18;1.70;;;;;;;11.15;63.54;101909.84;5094307;28;20504;-50
2023/04/16 05:38:37;;;;;;;4.18;1.45;;;;;;;11.14;63.59;101913.56;5093208;28;20096;-49
2023/04/16 05:41:03;;;;;;;3.67;1.48;;;;;;;11.02;63.97;101911.34;5094212;28;20027;-47
2023/04/16 05:43:29;;;;;;;4.18;1.60;;;;;;;11.03;63.89;101909.47;5109660;28;20030;-48
2023/04/16 05:45:55;;;;;;;2.92;1.67;;;;;;;11.08;63.90;101912.44;5114322;28;20023;-48
2023/04/16 05:48:22;;;;;;;4.60;1.88;;;;;;;11.06;63.74;101911.81;5087495;28;20071;-49
2023/04/16 05:50:49;;;;;;;4.05;1.50;;;;;;;11.03;63.90;101917.53;5105309;28;20031;-46
2023/04/16 05:53:17;;;;;;;3.25;1.60;;;;;;;10.98;63.81;101917.22;5105863;28;20547;-48
2023/04/16 05:55:44;;;;;;;4.75;1.63;;;;;;;10.94;64.02;101913.25;5073248;28;20089;-50
2023/04/16 05:58:10;;;;;;;5.15;1.80;;;;;;;10.93;63.88;101916.94;5097670;28;20062;-48
2023/04/16 06:00:36;;;;;;;7.13;1.95;;;;;;;10.93;64.12;101924.97;5114391;27;20031;-50
2023/04/16 06:03:03;;;;;;;5.32;2.08;;;;;;;10.78;64.93;101916.94;5105953;28;20031;-47
2023/04/16 06:05:29;;;;;;;4.53;1.67;;;;;;;10.80;64.63;101917.56;5109982;28;20028;-50
2023/04/16 06:07:55;;;;;;;3.00;1.58;;;;;;;10.78;64.69;101906.22;5099056;28;20039;-48
2023/04/16 06:10:22;;;;;;;5.55;2.00;;;;;;;10.75;64.78;101910.06;5113645;28;20468;-47
2023/04/16 06:12:48;;;;;;;5.07;2.30;;;;;;;10.76;65.04;101911.72;5111513;28;20484;-50
2023/04/16 06:15:14;;;;;;;6.72;2.55;;;;;;;10.65;65.22;101912.16;5113311;28;20022;-50
2023/04/16 06:17:41;;;;;;;7.28;3.35;;;;;;;10.61;65.46;101908.22;5103684;28;20024;-47
2023/04/16 06:20:07;;;;;;;6.97;3.55;;;;;;;10.54;65.50;101918.78;5113408;28;20399;-47
2023/04/16 06:22:34;;;;;;;5.75;3.45;;;;;;;10.48;65.49;101918.66;5111470;28;20019;-52
2023/04/16 06:25:00;;;;;;;7.40;4.75;;;;;;;10.45;65.62;101922.53;5113334;28;20039;-50
2023/04/16 06:27:26;;;;;;;5.75;3.80;;;;;;;10.36;66.03;101920.94;5110792;28;20032;-48
2023/04/16 06:29:52;;;;;;;9.52;3.55;;;;;;;10.32;66.10;101916.94;5113449;28;20023;-47
2023/04/16 06:32:19;;;;;;;5.75;2.88;;;;;;;10.27;66.38;101928.19;5103727;28;20542;-50
2023/04/16 06:34:45;;;;;;;9.07;3.15;;;;;;;10.26;66.53;101931.84;5111780;28;20098;-48
2023/04/16 06:37:11;;;;;;;5.43;2.60;;;;;;;10.22;66.43;101933.22;5092572;28;20495;-47
2023/04/16 06:39:38;;;;;;;5.72;2.80;;;;;;;10.26;66.20;101937.22;5092827;28;20028;-49
2023/04/16 06:42:04;;;;;;;4.20;2.45;;;;;;;10.17;66.55;101932.91;5091945;28;20132;-50
2023/04/16 06:44:30;;;;;;;4.35;2.42;;;;;;;10.06;67.04;101941.34;5092278;28;20028;-49
2023/04/16 06:46:57;;;;;;;7.97;2.65;;;;;;;10.12;67.37;101929.94;5107904;28;20027;-49
2023/04/16 06:49:23;;;;;;;6.10;2.55;;;;;;;10.27;66.30;101925.53;5112957;28;20027;-50
2023/04/16 06:51:49;;;;;;;5.78;2.38;;;;;;;10.16;66.53;101927.72;5105757;28;20106;-47
2023/04/16 06:54:16;;;;;;;7.55;2.28;;;;;;;10.12;66.66;101929.94;5112423;27;20031;-49
2023/04/16 06:56:42;;;;;;;5.28;2.22;;;;;;;9.96;67.32;101933.53;5110741;28;20107;-46
2023/04/16 06:59:08;;;;;;;10.02;2.33;;;;;;;9.94;67.04;101942.75;5111368;28;20102;-47
2023/04/16 07:01:35;;;;;;;5.53;1.95;;;;;;;9.78;67.78;101940.97;5091770;28;20046;-46
2023/04/16 07:04:02;;;;;;;8.27;2.35;;;;;;;9.83;67.44;101943.97;5092013;28;20099;-47
2023/04/16 07:06:28;;;;;;;10.00;2.67;;;;;;;9.72;68.08;101944.34;5107347;28;20710;-48
2023/04/16 07:08:54;;;;;;;10.13;2.55;;;;;;;9.74;68.39;101945.00;5092126;28;20028;-49
2023/04/16 07:11:21;;;;;;;7.40;2.33;;;;;;;9.58;69.27;101951.22;5106424;28;20135;-47
2023/04/16 07:13:47;;;;;;;7.80;3.00;;;;;;;9.78;68.68;101939.13;5112424;28;20071;-50
2023/04/16 07:16:14;;;;;;;6.25;1.63;;;;;;;9.58;69.27;101948.56;5104991;28;20036;-50
2023/04/16 07:18:40;;;;;;;6.75;2.30;;;;;;;9.58;69.11;101948.56;5112459;28;20028;-50
2023/04/16 07:21:06;;;;;;;6.18;2.15;;;;;;;9.64;69.37;101934.50;5109647;28;20023;-46
2023/04/16 07:23:32;;;;;;;8.10;2.10;;;;;;;9.63;69.28;101940.84;5112452;28;20480;-48
2023/04/16 07:25:59;;;;;;;8.90;2.50;;;;;;;9.58;69.08;101943.22;5110446;28;20556;-49
2023/04/16 07:28:25;;;;;;;5.95;2.13;;;;;;;9.57;69.14;101944.22;5112470;28;20031;-49
2023/04/16 07:30:52;;;;;;;6.57;2.63;;;;;;;9.56;69.42;101945.22;5105021;28;20047;-47
2023/04/16 07:33:18;;;;;;;8.18;2.35;;;;;;;9.45;69.55;101948.28;5111935;28;20035;-50
2023/04/16 07:35:44;;;;;;;9.65;2.97;;;;;;;9.45;69.53;101958.97;5110340;28;20024;-51
2023/04/16 07:38:10;;;;;;;5.78;2.15;;;;;;;9.50;69.14;101959.28;5111570;28;20110;-51
2023/04/16 07:40:37;;;;;;;5.22;1.73;;;;;;;9.56;69.07;101961.25;5108685;28;20120;-51
2023/04/16 07:43:03;;;;;;;4.85;1.98;;;;;;;9.59;68.59;101963.56;5099552;28;20103;-50
2023/04/16 07:45:29;;;;;;;8.95;2.17;;;;;;;9.56;68.73;101966.63;5097851;28;20066;-50
2023/04/16 07:47:55;;;;;;;7.43;2.13;;;;;;;9.54;68.49;101968.59;5112100;28;20467;-50
2023/04/16 07:50:22;;;;;;;7.43;2.35;;;;;;;9.46;68.88;101963.28;5104789;28;20031;-49
2023/04/16 07:52:48;;;;;;;7.47;2.40;;;;;;;9.51;67.91;101951.09;5099426;28;20097;-51
2023/04/16 07:55:14;;;;;;;8.07;2.10;;;;;;;9.54;67.60;101955.25;5109289;28;20468;-51
2023/04/16 07:57:40;;;;;;;5.55;1.80;;;;;;;9.46;67.75;101956.09;5112379;28;20084;-48
2023/04/16 08:00:08;;;;;;;7.13;2.03;;;;;;;9.48;67.20;101958.59;5106807;28;20031;-50
2023/04/16 08:02:34;;;;;;;6.45;1.60;;;;;;;9.45;67.48;101956.28;5110443;28;20043;-51
2023/04/16 08:05:00;;;;;;;10.55;2.72;;;;;;;9.42;67.86;101953.94;5109117;28;20023;-50
2023/04/16 08:07:26;;;;;;;5.35;1.83;;;;;;;9.44;67.75;101949.28;5112093;28;20111;-51
2023/04/16 08:09:53;;;;;;;9.63;2.10;;;;;;;9.48;67.35;101947.91;5095679;28;20029;-51
2023/04/16 08:12:20;;;;;;;5.15;1.83;;;;;;;9.41;67.50;101946.94;5111908;28;20016;-50
2023/04/16 08:14:47;;;;;;;4.13;2.20;;;;;;;9.29;67.99;101959.00;5109698;28;20175;-50
2023/04/16 08:17:14;;;;;;;5.15;1.70;;;;;;;9.29;67.79;101945.63;5111688;28;20073;-50
2023/04/16 08:19:43;;;;;;;3.58;1.52;;;;;;;9.30;67.50;101953.47;5109036;28;20019;-50
2023/04/16 08:22:11;;;;;;;5.22;2.05;;;;;;;9.33;67.77;101952.28;5106157;28;20020;-50
2023/04/16 08:24:37;;;;;;;6.40;1.65;;;;;;;9.14;68.43;101943.66;5110692;28;20038;-48
2023/04/16 08:27:04;;;;;;;4.40;2.13;;;;;;;9.27;67.92;101945.78;5111059;28;20163;-50
2023/04/16 08:29:30;;;;;;;5.45;1.95;;;;;;;9.15;68.38;101939.13;5111760;28;20020;-50
2023/04/16 08:31:57;;;;;;;4.75;2.05;;;;;;;9.18;68.08;101938.81;5091082;28;20039;-48
2023/04/16 08:34:23;;;;;;;4.78;1.90;;;;;;;9.14;68.46;101935.63;5091420;28;20103;-50
2023/04/16 08:36:49;;;;;;;7.72;2.15;;;;;;;8.98;69.06;101941.81;5090454;28;20028;-51
2023/04/16 08:39:16;;;;;;;8.95;2.03;;;;;;;9.08;68.71;101939.00;5091242;28;20117;-50
2023/04/16 08:41:44;;;;;;;11.02;2.35;;;;;;;8.95;69.66;101936.00;5104376;28;20507;-50
2023/04/16 08:44:20;;;;;;;8.23;2.25;;;;;;;9.13;69.71;101925.13;5073795;28;20028;-50
2023/04/16 08:46:47;;;;;;;6.38;2.22;;;;;;;9.15;68.97;101926.63;5080222;28;20035;-51
2023/04/16 08:49:17;;;;;;;4.25;1.52;;;;;;;8.98;69.37;101924.97;5071779;28;20111;-50
2023/04/16 08:51:50;;;;;;;7.20;2.00;;;;;;;9.04;69.68;101918.13;5105770;28;20028;-51
2023/04/16 08:54:23;;;;;;;6.07;2.67;;;;;;;8.86;70.33;101918.31;5093681;27;20066;-48
2023/04/16 08:56:51;;;;;;;6.22;1.83;;;;;;;9.04;69.75;101918.97;5097577;28;20112;-50
2023/04/16 08:59:17;;;;;;;6.57;1.73;;;;;;;8.99;69.41;101911.47;5094837;28;20027;-51
2023/04/16 09:01:45;;;;;;;7.65;2.33;;;;;;;8.89;69.97;101912.66;5106496;28;20110;-48
2023/04/16 09:04:14;;;;;;;4.70;2.13;;;;;;;8.96;69.47;101906.47;5075505;28;20433;-49
2023/04/16 09:06:42;;;;;;;7.22;2.00;;;;;;;8.78;70.36;101913.84;5111418;28;20034;-50
2023/04/16 09:09:10;;;;;;;6.63;1.80;;;;;;;8.76;70.12;101906.97;5115133;28;20059;-49
2023/04/16 09:11:38;;;;;;;3.95;2.05;;;;;;;8.71;70.25;101910.16;5095032;28;20039;-49
2023/04/16 09:14:10;;;;;;;7.95;2.40;;;;;;;8.42;71.84;101915.97;5073960;28;20029;-48
2023/04/16 09:16:36;;;;;;;3.85;2.03;;;;;;;8.53;71.22;101912.97;5090333;28;20040;-50
2023/04/16 09:19:02;;;;;;;5.43;1.77;;;;;;;8.48;70.92;101909.97;5094501;28;20381;-46
2023/04/16 09:21:29;;;;;;;4.13;2.22;;;;;;;7.95;72.17;101905.88;5093310;28;20028;-50
2023/04/16 09:23:56;;;;;;;8.52;2.33;;;;;;;8.17;71.80;101907.94;5093925;28;20092;-50
2023/04/16 09:26:22;;;;;;;3.70;1.85;;;;;;;8.23;71.07;101913.59;5105916;28;20031;-47
2023/04/16 09:28:51;;;;;;;7.15;2.50;;;;;;;8.26;70.76;101908.75;5113353;28;20084;-50
2023/04/16 09:31:18;;;;;;;4.00;1.65;;;;;;;8.14;70.94;101905.56;5107476;28;20028;-49
2023/04/16 09:34:06;;;;;;;5.85;2.05;;;;;;;8.08;71.16;101903.56;5111876;27;20024;-51
2023/04/16 09:36:33;;;;;;;6.35;2.50;;;;;;;7.72;72.62;101894.13;5114427;28;20107;-48
2023/04/16 09:39:00;;;;;;;7.63;2.20;;;;;;;7.27;74.69;101895.25;5102259;28;20549;-48
2023/04/16 09:41:28;;;;;;;8.77;2.72;;;;;;;7.10;75.21;101889.84;5073860;28;20028;-46
2023/04/16 09:44:03;;;;;;;5.45;2.60;;;;;;;6.83;75.84;101887.38;5080974;28;20027;-49
2023/04/16 09:46:31;;;;;;;5.43;2.72;;;;;;;7.11;75.12;101878.22;5114262;28;20175;-49
2023/04/16 09:48:57;;;;;;;8.98;2.78;;;;;;;7.17;74.89;101884.75;5105260;28;20421;-50
2023/04/16 09:51:25;;;;;;;10.43;3.15;;;;;;;6.67;77.22;101876.59;5093732;28;20020;-50
2023/04/16 09:53:54;;;;;;;4.93;2.75;;;;;;;6.64;77.10;101883.06;5099798;28;20553;-50
2023/04/16 09:56:24;;;;;;;6.60;2.45;;;;;;;6.94;76.89;101884.44;5111316;28;20043;-48
2023/04/16 09:58:57;;;;;;;11.48;2.90;;;;;;;7.07;76.14;101879.53;5111726;28;20035;-49
2023/04/16 10:01:23;;;;;;;6.47;2.50;;;;;;;7.10;76.57;101871.19;5113365;28;20501;-46
2023/04/16 10:03:52;;;;;;;5.28;2.60;;;;;;;7.29;75.59;101869.31;5106397;28;20394;-48
2023/04/16 10:06:21;;;;;;;8.27;2.08;;;;;;;7.29;76.04;101866.66;5113947;28;20108;-50
2023/04/16 10:08:52;;;;;;;6.55;2.53;;;;;;;7.43;75.09;101867.88;5111559;28;20076;-47
2023/04/16 10:11:20;;;;;;;9.65;2.17;;;;;;;7.48;75.18;101860.25;5113847;28;20027;-49
2023/04/16 10:13:46;;;;;;;4.50;2.35;;;;;;;7.53;74.91;101871.25;5111154;28;20031;-50
2023/04/16 10:16:12;;;;;;;9.68;2.60;;;;;;;7.65;74.87;101868.13;5113642;28;20039;-47
2023/04/16 10:18:41;;;;;;;6.35;2.15;;;;;;;7.77;74.09;101875.81;5106833;28;20483;-48
2023/04/16 10:21:07;;;;;;;7.75;2.10;;;;;;;7.84;74.32;101874.19;5113897;28;20024;-47
2023/04/16 10:23:34;;;;;;;4.70;2.50;;;;;;;7.73;74.84;101874.50;5097583;28;20392;-46
2023/04/16 10:26:01;;;;;;;10.32;2.35;;;;;;;7.76;74.61;101879.47;5093352;28;20028;-47
2023/04/16 10:28:28;;;;;;;5.45;2.08;;;;;;;7.88;74.08;101875.50;5104508;28;20560;-48
2023/04/16 10:30:56;;;;;;;5.90;1.80;;;;;;;8.05;72.93;101884.38;5112212;28;20055;-48
2023/04/16 10:33:26;;;;;;;6.18;2.13;;;;;;;8.10;72.89;101890.88;5111328;28;20118;-51
2023/04/16 10:36:08;;;;;;;7.15;2.10;;;;;;;8.17;72.68;101893.75;5113098;28;20096;-49
2023/04/16 10:38:37;;;;;;;6.38;2.08;;;;;;;7.98;73.20;101897.53;5097734;28;20028;-50
2023/04/16 10:41:04;;;;;;;8.25;2.47;;;;;;;7.81;73.72;101893.16;5080967;28;20028;-49
2023/04/16 10:43:38;;;;;;;8.85;2.38;;;;;;;7.74;73.37;101897.47;5092509;28;20032;-46
2023/04/16 10:46:20;;;;;;;3.78;1.92;;;;;;;7.93;72.20;101894.53;5090719;28;20043;-47
2023/04/16 10:48:47;;;;;;;6.85;1.92;;;;;;;7.80;71.93;101905.66;5092723;28;20385;-47
2023/04/16 10:51:25;;;;;;;11.18;2.63;;;;;;;7.68;72.45;101902.44;5100150;28;20422;-48
2023/04/16 10:53:53;;;;;;;6.70;3.00;;;;;;;6.57;76.27;101901.47;5112640;28;20432;-48
2023/04/16 10:56:23;;;;;;;9.88;3.22;;;;;;;6.68;76.29;101904.88;5110647;28;20118;-48
2023/04/16 10:58:51;;;;;;;4.93;2.28;;;;;;;6.80;76.04;101896.47;5112957;28;20028;-51
2023/04/16 11:01:18;;;;;;;6.07;2.30;;;;;;;7.15;74.58;101902.69;5105394;28;20028;-47
2023/04/16 11:03:48;;;;;;;6.00;2.15;;;;;;;7.07;74.75;101905.31;5112374;28;20030;-49
2023/04/16 11:06:17;;;;;;;5.10;2.20;;;;;;;7.15;74.07;101897.38;5110407;28;20031;-50
2023/04/16 11:08:47;;;;;;;5.50;2.28;;;;;;;7.07;74.36;101903.47;5112683;28;20121;-50
2023/04/16 11:11:13;;;;;;;6.97;2.33;;;;;;;6.96;75.34;101898.41;5109981;28;20114;-48
2023/04/16 11:13:44;;;;;;;10.98;2.45;;;;;;;6.70;76.41;101903.72;5111254;28;20084;-47
2023/04/16 11:16:15;;;;;;;8.23;2.25;;;;;;;6.88;75.56;101901.00;5105247;28;20441;-46
2023/04/16 11:18:41;;;;;;;9.15;2.28;;;;;;;6.88;75.65;101898.34;5112438;28;20054;-49
2023/04/16 11:21:09;;;;;;;8.27;2.55;;;;;;;6.76;76.44;101896.94;5109835;28;20067;-50
2023/04/16 11:23:49;;;;;;;8.77;2.88;;;;;;;6.93;75.70;101885.41;5111965;28;20058;-50
2023/04/16 11:26:29;;;;;;;8.65;2.60;;;;;;;7.09;75.09;101898.00;5110092;28;20063;-50
2023/04/16 11:28:56;;;;;;;5.97;2.15;;;;;;;7.13;74.78;101892.19;5112550;28;20032;-49